createdAt,value
2018-01-27T00:01:09.469Z,4.53
2018-01-27T00:06:11.998Z,4.57
2018-01-27T00:11:14.487Z,6.80
2018-01-27T00:16:18.163Z,8.20
2018-01-27T00:21:20.694Z,7.97
2018-01-27T00:26:23.292Z,11.07
2018-01-27T00:31:26.764Z,10.90
2018-01-27T00:36:29.271Z,10.20
2018-01-27T00:41:31.854Z,11.50
2018-01-27T00:46:35.141Z,12.20
2018-01-27T00:51:37.722Z,8.80
2018-01-27T00:56:40.335Z,14.20
2018-01-27T01:01:42.852Z,17.53
2018-01-27T01:06:46.735Z,12.23
2018-01-27T01:11:49.490Z,12.83
2018-01-27T01:16:52.028Z,18.70
2018-01-27T01:21:54.755Z,15.20
2018-01-27T01:26:57.411Z,12.60
2018-01-27T01:32:00.211Z,13.07
2018-01-27T01:37:04.561Z,13.53
2018-01-27T01:42:07.839Z,23.40
2018-01-27T01:47:10.386Z,11.53
2018-01-27T01:52:13.989Z,23.50
2018-01-27T01:57:17.381Z,17.20
2018-01-27T02:02:19.944Z,12.83
2018-01-27T02:07:22.559Z,10.07
2018-01-27T02:12:25.870Z,8.20
2018-01-27T02:17:28.898Z,20.10
2018-01-27T02:22:32.723Z,8.03
2018-01-27T02:27:35.803Z,8.67
2018-01-27T02:32:38.312Z,14.00
2018-01-27T02:37:42.319Z,7.03
2018-01-27T02:42:45.326Z,11.27
2018-01-27T02:47:48.399Z,11.30
2018-01-27T02:52:51.867Z,8.70
2018-01-27T02:57:55.160Z,8.97
2018-01-27T03:02:58.664Z,13.20
2018-01-27T03:08:01.228Z,6.77
2018-01-27T03:13:03.755Z,15.97
2018-01-27T03:18:06.307Z,6.27
2018-01-27T03:23:08.866Z,8.77
2018-01-27T03:28:11.564Z,8.13
2018-01-27T03:33:14.151Z,21.93
2018-01-27T03:38:17.541Z,7.53
2018-01-27T03:43:20.097Z,9.03
2018-01-27T03:48:22.635Z,7.00
2018-01-27T03:53:25.865Z,7.60
2018-01-27T03:58:29.463Z,11.10
2018-01-27T04:03:32.417Z,8.13
2018-01-27T04:08:34.981Z,7.13
2018-01-27T04:13:38.422Z,10.17
2018-01-27T04:18:41.630Z,5.50
2018-01-27T04:23:44.509Z,8.10
2018-01-27T04:28:47.269Z,8.27
2018-01-27T04:33:49.942Z,6.10
2018-01-27T04:38:53.053Z,6.87
2018-01-27T04:43:55.612Z,6.93
2018-01-27T04:48:58.171Z,10.53
2018-01-27T04:54:00.907Z,9.07
2018-01-27T04:59:04.832Z,6.10
2018-01-27T05:04:08.161Z,6.60
2018-01-27T05:09:11.715Z,11.40
2018-01-27T05:14:14.246Z,6.60
2018-01-27T05:19:16.931Z,4.70
2018-01-27T05:24:19.968Z,9.83
2018-01-27T05:29:22.503Z,7.47
2018-01-27T05:34:26.525Z,8.07
2018-01-27T05:39:29.427Z,7.20
2018-01-27T05:44:31.939Z,9.33
2018-01-27T05:49:34.514Z,9.93
2018-01-27T05:54:37.094Z,8.70
2018-01-27T05:59:39.803Z,4.63
2018-01-27T06:04:43.064Z,8.97
2018-01-27T06:09:46.386Z,7.60
2018-01-27T06:14:50.034Z,10.07
2018-01-27T06:19:52.602Z,4.80
2018-01-27T06:24:56.100Z,8.27
2018-01-27T06:29:58.799Z,7.30
2018-01-27T06:35:02.196Z,7.73
2018-01-27T06:40:05.002Z,8.50
2018-01-27T06:45:08.659Z,15.87
2018-01-27T06:50:11.205Z,8.87
2018-01-27T06:55:13.757Z,8.57
2018-01-27T07:00:16.253Z,8.90
2018-01-27T07:05:19.155Z,10.37
2018-01-27T07:10:22.490Z,10.93
2018-01-27T07:15:25.037Z,6.77
2018-01-27T07:20:27.552Z,6.93
2018-01-27T07:25:30.068Z,9.30
2018-01-27T07:30:32.617Z,7.80
2018-01-27T07:35:35.150Z,7.43
2018-01-27T07:40:37.942Z,3.60
2018-01-27T07:45:41.018Z,14.00
2018-01-27T07:50:44.000Z,5.40
2018-01-27T07:55:47.833Z,5.00
2018-01-27T08:00:50.429Z,7.70
2018-01-27T08:05:53.879Z,7.07
2018-01-27T08:10:56.574Z,9.10
2018-01-27T08:15:59.888Z,11.63
2018-01-27T08:21:03.182Z,3.17
2018-01-27T08:26:06.078Z,5.13
2018-01-27T08:31:08.613Z,7.23
2018-01-27T08:36:11.855Z,4.83
2018-01-27T08:41:14.578Z,5.20
2018-01-27T08:46:17.113Z,5.57
2018-01-27T08:51:20.635Z,9.13
2018-01-27T08:56:23.333Z,10.57
2018-01-27T09:01:26.011Z,3.63
2018-01-27T09:06:28.695Z,10.93
2018-01-27T09:11:32.355Z,5.87
2018-01-27T09:16:35.100Z,7.37
2018-01-27T09:21:38.523Z,25.60
2018-01-27T09:26:41.190Z,7.13
2018-01-27T09:31:44.121Z,16.00
2018-01-27T09:36:46.849Z,12.90
2018-01-27T09:41:49.407Z,9.00
2018-01-27T09:46:52.904Z,11.03
2018-01-27T09:51:55.539Z,13.43
2018-01-27T09:56:58.143Z,10.90
2018-01-27T10:02:00.703Z,10.03
2018-01-27T10:07:03.873Z,6.30
2018-01-27T10:12:07.167Z,10.97
2018-01-27T10:17:09.802Z,9.53
2018-01-27T10:22:13.359Z,7.13
2018-01-27T10:27:16.051Z,5.87
2018-01-27T10:32:19.348Z,9.63
2018-01-27T10:37:21.903Z,4.60
2018-01-27T10:42:24.458Z,6.90
2018-01-27T10:47:27.044Z,6.60
2018-01-27T10:52:29.849Z,6.93
2018-01-27T10:57:32.492Z,7.73
2018-01-27T11:02:35.183Z,7.00
2018-01-27T11:07:37.720Z,11.63
2018-01-27T11:12:41.414Z,9.33
2018-01-27T11:17:44.032Z,4.97
2018-01-27T11:22:46.767Z,4.67
2018-01-27T11:27:49.640Z,7.17
2018-01-27T11:32:53.082Z,6.30
2018-01-27T11:37:57.183Z,8.83
2018-01-27T11:43:01.053Z,5.60
2018-01-27T11:48:04.480Z,6.73
2018-01-27T11:53:07.009Z,4.77
2018-01-27T11:58:09.606Z,5.20
2018-01-27T12:03:13.028Z,10.07
2018-01-27T12:08:15.583Z,4.83
2018-01-27T12:13:18.151Z,4.80
2018-01-27T12:18:20.845Z,3.50
2018-01-27T12:23:23.402Z,6.77
2018-01-27T12:28:25.930Z,7.73
2018-01-27T12:33:29.807Z,3.60
2018-01-27T12:38:33.205Z,6.00
2018-01-27T12:43:35.927Z,10.00
2018-01-27T12:48:39.258Z,6.87
2018-01-27T12:53:41.789Z,4.10
2018-01-27T12:58:44.860Z,5.23
2018-01-27T13:03:48.163Z,5.63
2018-01-27T13:08:51.455Z,9.20
2018-01-27T13:13:54.221Z,7.80
2018-01-27T13:18:56.803Z,6.13
2018-01-27T13:23:59.370Z,9.37
2018-01-27T13:29:02.063Z,9.17
2018-01-27T13:34:04.600Z,6.10
2018-01-27T13:39:07.147Z,11.20
2018-01-27T13:44:10.530Z,7.83
2018-01-27T13:49:13.123Z,7.90
2018-01-27T13:54:16.154Z,20.83
2018-01-27T13:59:19.348Z,41.87
2018-01-27T14:04:22.108Z,72.40
2018-01-27T14:09:24.712Z,83.43
2018-01-27T14:14:27.263Z,75.00
2018-01-27T14:19:29.813Z,71.33
2018-01-27T14:24:32.688Z,63.07
2018-01-27T14:29:35.244Z,59.37
2018-01-27T14:34:37.787Z,59.00
2018-01-27T14:39:40.375Z,53.00
2018-01-27T14:44:43.023Z,48.30
2018-01-27T14:49:46.367Z,42.57
2018-01-27T14:54:48.929Z,39.87
2018-01-27T14:59:52.225Z,40.63
2018-01-27T15:04:54.751Z,35.73
2018-01-27T15:09:57.436Z,32.73
2018-01-27T15:15:00.060Z,32.00
2018-01-27T15:20:02.682Z,28.07
2018-01-27T15:25:05.286Z,28.00
2018-01-27T15:30:08.786Z,25.63
2018-01-27T15:35:11.353Z,25.40
2018-01-27T15:40:13.903Z,21.27
2018-01-27T15:45:16.618Z,20.53
2018-01-27T15:50:19.419Z,22.97
2018-01-27T15:55:23.629Z,17.63
2018-01-27T16:00:26.888Z,19.70
2018-01-27T16:05:29.988Z,14.70
2018-01-27T16:10:33.973Z,16.73
2018-01-27T16:15:36.614Z,12.73
2018-01-27T16:20:39.711Z,15.73
2018-01-27T16:25:51.038Z,13.60
2018-01-27T16:30:53.604Z,12.20
2018-01-27T16:35:56.461Z,12.30
2018-01-27T16:41:00.125Z,9.00
2018-01-27T16:46:02.791Z,11.77
2018-01-27T16:51:06.151Z,10.43
2018-01-27T16:56:09.261Z,12.43
2018-01-27T17:01:12.311Z,9.17
2018-01-27T17:06:14.810Z,9.27
2018-01-27T17:11:17.650Z,7.50
2018-01-27T17:16:20.762Z,9.77
2018-01-27T17:21:23.322Z,8.13
2018-01-27T17:26:25.848Z,13.60
2018-01-27T17:31:28.522Z,8.20
2018-01-27T17:36:31.068Z,6.20
2018-01-27T17:41:33.991Z,6.47
2018-01-27T17:46:36.500Z,6.00
2018-01-27T17:51:39.204Z,6.23
2018-01-27T17:56:41.737Z,10.20
2018-01-27T18:01:44.347Z,14.87
2018-01-27T18:06:47.799Z,7.00
2018-01-27T18:11:50.358Z,7.27
2018-01-27T18:16:52.920Z,10.63
2018-01-27T18:21:56.147Z,8.80
2018-01-27T18:26:58.764Z,7.00
2018-01-27T18:32:01.702Z,7.90
2018-01-27T18:37:05.046Z,6.47
2018-01-27T18:42:07.834Z,8.93
2018-01-27T18:47:11.293Z,4.73
2018-01-27T18:52:13.845Z,7.33
2018-01-27T18:57:17.466Z,7.97
2018-01-27T19:02:21.718Z,10.83
2018-01-27T19:07:24.499Z,7.57
2018-01-27T19:12:27.191Z,7.83
2018-01-27T19:17:30.442Z,6.27
2018-01-27T19:22:33.279Z,7.37
2018-01-27T19:27:36.305Z,18.10
2018-01-27T19:32:39.081Z,11.53
2018-01-27T19:37:41.659Z,8.30
2018-01-27T19:42:45.221Z,6.63
2018-01-27T19:47:48.919Z,7.00
2018-01-27T19:52:51.545Z,7.07
2018-01-27T19:57:54.973Z,6.47
2018-01-27T20:02:57.731Z,9.00
2018-01-27T20:08:01.047Z,10.73
2018-01-27T20:13:04.370Z,11.10
2018-01-27T20:18:07.690Z,7.23
2018-01-27T20:23:11.216Z,9.77
2018-01-27T20:28:15.054Z,8.60
2018-01-27T20:33:17.608Z,7.30
2018-01-27T20:38:20.440Z,7.33
2018-01-27T20:43:23.825Z,7.63
2018-01-27T20:48:26.614Z,7.30
2018-01-27T20:53:29.518Z,8.87
2018-01-27T20:58:32.077Z,10.03
2018-01-27T21:03:34.915Z,9.47
2018-01-27T21:08:37.461Z,10.17
2018-01-27T21:13:40.807Z,9.73
2018-01-27T21:18:43.970Z,8.30
2018-01-27T21:23:49.349Z,8.87
2018-01-27T21:28:51.915Z,11.83
2018-01-27T21:33:55.725Z,12.63
2018-01-27T21:38:59.748Z,10.30
2018-01-27T21:44:02.285Z,9.80
2018-01-27T21:49:04.845Z,12.47
2018-01-27T21:54:08.169Z,17.00
2018-01-27T21:59:10.711Z,13.53
2018-01-27T22:04:13.271Z,8.80
2018-01-27T22:09:17.225Z,8.63
2018-01-27T22:14:20.474Z,10.10
2018-01-27T22:19:23.500Z,12.23
2018-01-27T22:24:27.313Z,7.40
2018-01-27T22:29:32.376Z,11.80
2018-01-27T22:34:35.713Z,8.80
2018-01-27T22:39:38.714Z,7.57
2018-01-27T22:44:41.588Z,7.87
2018-01-27T22:49:44.223Z,8.90
2018-01-27T22:54:47.461Z,6.70
2018-01-27T22:59:50.413Z,4.60
2018-01-27T23:04:52.937Z,4.90
2018-01-27T23:09:57.351Z,6.20
2018-01-27T23:15:00.426Z,7.60
2018-01-27T23:20:03.195Z,7.90
2018-01-27T23:25:06.134Z,6.20
2018-01-27T23:30:09.836Z,5.67
2018-01-27T23:35:12.369Z,6.33
2018-01-27T23:40:15.270Z,4.50
2018-01-27T23:45:17.804Z,5.17
2018-01-27T23:50:20.372Z,4.23
2018-01-27T23:55:23.006Z,4.77
